sensor_id;sensor_type;location;lat;lon;timestamp;P1;durP1;ratioP1;P2;durP2;ratioP2
6947;SDS011;3513;47.664;9.162;2024-03-02T00:02:11;32.90;;;19.90;;
6947;SDS011;3513;47.664;9.162;2024-03-02T00:04:37;34.53;;;20.20;;
6947;SDS011;3513;47.664;9.162;2024-03-02T00:07:03;31.83;;;18.57;;
6947;SDS011;3513;47.664;9.162;2024-03-02T00:09:29;45.13;;;18.07;;
6947;SDS011;3513;47.664;9.162;2024-03-02T00:11:55;27.90;;;16.27;;
6947;SDS011;3513;47.664;9.162;2024-03-02T00:14:20;30.40;;;17.90;;
6947;SDS011;3513;47.664;9.162;2024-03-02T00:16:46;32.87;;;18.27;;
6947;SDS011;3513;47.664;9.162;2024-03-02T00:19:12;35.80;;;20.00;;
6947;SDS011;3513;47.664;9.162;2024-03-02T00:21:38;28.20;;;17.07;;
6947;SDS011;3513;47.664;9.162;2024-03-02T00:24:07;29.03;;;17.17;;
6947;SDS011;3513;47.664;9.162;2024-03-02T00:26:45;33.17;;;16.43;;
6947;SDS011;3513;47.664;9.162;2024-03-02T00:29:10;24.93;;;16.27;;
6947;SDS011;3513;47.664;9.162;2024-03-02T00:31:40;31.87;;;14.80;;
6947;SDS011;3513;47.664;9.162;2024-03-02T00:34:06;25.77;;;15.10;;
6947;SDS011;3513;47.664;9.162;2024-03-02T00:36:31;25.93;;;15.30;;
6947;SDS011;3513;47.664;9.162;2024-03-02T00:38:57;24.50;;;14.03;;
6947;SDS011;3513;47.664;9.162;2024-03-02T00:41:23;26.97;;;15.70;;
6947;SDS011;3513;47.664;9.162;2024-03-02T00:44:03;25.17;;;15.37;;
6947;SDS011;3513;47.664;9.162;2024-03-02T00:46:40;23.53;;;15.77;;
6947;SDS011;3513;47.664;9.162;2024-03-02T00:51:49;37.37;;;18.97;;
6947;SDS011;3513;47.664;9.162;2024-03-02T00:54:21;37.93;;;20.37;;
6947;SDS011;3513;47.664;9.162;2024-03-02T00:56:49;37.27;;;20.63;;
6947;SDS011;3513;47.664;9.162;2024-03-02T00:59:15;45.53;;;22.37;;
6947;SDS011;3513;47.664;9.162;2024-03-02T01:01:41;47.30;;;23.83;;
6947;SDS011;3513;47.664;9.162;2024-03-02T01:04:08;47.80;;;24.00;;
6947;SDS011;3513;47.664;9.162;2024-03-02T01:06:34;52.83;;;25.10;;
6947;SDS011;3513;47.664;9.162;2024-03-02T01:11:29;76.27;;;25.30;;
6947;SDS011;3513;47.664;9.162;2024-03-02T01:13:55;58.33;;;25.37;;
6947;SDS011;3513;47.664;9.162;2024-03-02T01:16:20;56.23;;;25.43;;
6947;SDS011;3513;47.664;9.162;2024-03-02T01:18:46;49.50;;;27.60;;
6947;SDS011;3513;47.664;9.162;2024-03-02T01:21:12;50.10;;;26.20;;
6947;SDS011;3513;47.664;9.162;2024-03-02T01:23:37;51.20;;;27.03;;
6947;SDS011;3513;47.664;9.162;2024-03-02T01:26:03;55.83;;;29.23;;
6947;SDS011;3513;47.664;9.162;2024-03-02T01:28:29;56.73;;;28.73;;
6947;SDS011;3513;47.664;9.162;2024-03-02T01:30:54;79.67;;;29.37;;
6947;SDS011;3513;47.664;9.162;2024-03-02T01:33:20;67.97;;;30.53;;
6947;SDS011;3513;47.664;9.162;2024-03-02T01:35:46;99.67;;;30.97;;
6947;SDS011;3513;47.664;9.162;2024-03-02T01:38:12;66.30;;;27.10;;
6947;SDS011;3513;47.664;9.162;2024-03-02T01:40:38;69.97;;;29.97;;
6947;SDS011;3513;47.664;9.162;2024-03-02T01:43:04;113.87;;;29.47;;
6947;SDS011;3513;47.664;9.162;2024-03-02T01:45:30;93.23;;;26.30;;
6947;SDS011;3513;47.664;9.162;2024-03-02T01:47:57;76.60;;;28.57;;
6947;SDS011;3513;47.664;9.162;2024-03-02T01:50:29;73.43;;;29.17;;
6947;SDS011;3513;47.664;9.162;2024-03-02T01:52:57;231.97;;;36.00;;
6947;SDS011;3513;47.664;9.162;2024-03-02T01:55:23;142.10;;;33.30;;
6947;SDS011;3513;47.664;9.162;2024-03-02T01:57:49;120.40;;;35.10;;
6947;SDS011;3513;47.664;9.162;2024-03-02T02:00:18;117.23;;;32.67;;
6947;SDS011;3513;47.664;9.162;2024-03-02T02:02:44;120.20;;;34.27;;
6947;SDS011;3513;47.664;9.162;2024-03-02T02:05:11;101.17;;;31.83;;
6947;SDS011;3513;47.664;9.162;2024-03-02T02:07:37;112.77;;;33.63;;
6947;SDS011;3513;47.664;9.162;2024-03-02T02:10:03;109.43;;;33.87;;
6947;SDS011;3513;47.664;9.162;2024-03-02T02:12:29;77.97;;;31.73;;
6947;SDS011;3513;47.664;9.162;2024-03-02T02:14:55;97.30;;;32.33;;
6947;SDS011;3513;47.664;9.162;2024-03-02T02:17:20;76.50;;;30.67;;
6947;SDS011;3513;47.664;9.162;2024-03-02T02:19:46;99.83;;;32.53;;
6947;SDS011;3513;47.664;9.162;2024-03-02T02:22:11;152.57;;;30.60;;
6947;SDS011;3513;47.664;9.162;2024-03-02T02:24:40;100.20;;;32.50;;
6947;SDS011;3513;47.664;9.162;2024-03-02T02:27:07;123.53;;;34.60;;
6947;SDS011;3513;47.664;9.162;2024-03-02T02:29:33;98.03;;;35.20;;
6947;SDS011;3513;47.664;9.162;2024-03-02T02:31:58;152.17;;;35.33;;
6947;SDS011;3513;47.664;9.162;2024-03-02T02:34:24;170.93;;;37.30;;
6947;SDS011;3513;47.664;9.162;2024-03-02T02:36:49;151.53;;;33.87;;
6947;SDS011;3513;47.664;9.162;2024-03-02T02:39:15;147.87;;;33.67;;
6947;SDS011;3513;47.664;9.162;2024-03-02T02:41:42;264.13;;;36.97;;
6947;SDS011;3513;47.664;9.162;2024-03-02T02:44:08;236.13;;;36.90;;
6947;SDS011;3513;47.664;9.162;2024-03-02T02:46:36;100.43;;;34.70;;
6947;SDS011;3513;47.664;9.162;2024-03-02T02:49:03;284.53;;;35.67;;
6947;SDS011;3513;47.664;9.162;2024-03-02T02:51:28;320.07;;;38.70;;
6947;SDS011;3513;47.664;9.162;2024-03-02T02:53:54;196.43;;;33.73;;
6947;SDS011;3513;47.664;9.162;2024-03-02T02:56:19;228.27;;;36.00;;
6947;SDS011;3513;47.664;9.162;2024-03-02T02:58:45;255.77;;;36.37;;
6947;SDS011;3513;47.664;9.162;2024-03-02T03:01:10;243.07;;;33.63;;
6947;SDS011;3513;47.664;9.162;2024-03-02T03:03:36;284.50;;;34.97;;
6947;SDS011;3513;47.664;9.162;2024-03-02T03:06:01;176.73;;;31.50;;
6947;SDS011;3513;47.664;9.162;2024-03-02T03:08:27;220.20;;;33.80;;
6947;SDS011;3513;47.664;9.162;2024-03-02T03:10:53;79.73;;;27.00;;
6947;SDS011;3513;47.664;9.162;2024-03-02T03:13:19;99.77;;;28.40;;
6947;SDS011;3513;47.664;9.162;2024-03-02T03:15:45;85.07;;;28.70;;
6947;SDS011;3513;47.664;9.162;2024-03-02T03:18:10;50.63;;;27.70;;
6947;SDS011;3513;47.664;9.162;2024-03-02T03:20:36;71.40;;;27.90;;
6947;SDS011;3513;47.664;9.162;2024-03-02T03:23:02;84.17;;;25.23;;
6947;SDS011;3513;47.664;9.162;2024-03-02T03:25:29;53.83;;;24.33;;
6947;SDS011;3513;47.664;9.162;2024-03-02T03:27:54;84.60;;;25.00;;
6947;SDS011;3513;47.664;9.162;2024-03-02T03:30:20;88.47;;;25.73;;
6947;SDS011;3513;47.664;9.162;2024-03-02T03:32:45;98.43;;;27.10;;
6947;SDS011;3513;47.664;9.162;2024-03-02T03:35:13;110.10;;;26.57;;
6947;SDS011;3513;47.664;9.162;2024-03-02T03:37:40;61.03;;;23.57;;
6947;SDS011;3513;47.664;9.162;2024-03-02T03:40:06;137.00;;;25.30;;
6947;SDS011;3513;47.664;9.162;2024-03-02T03:42:35;33.83;;;21.33;;
6947;SDS011;3513;47.664;9.162;2024-03-02T03:45:04;37.70;;;22.00;;
6947;SDS011;3513;47.664;9.162;2024-03-02T03:47:33;39.17;;;22.43;;
6947;SDS011;3513;47.664;9.162;2024-03-02T03:49:59;49.53;;;23.87;;
6947;SDS011;3513;47.664;9.162;2024-03-02T03:52:24;47.83;;;24.67;;
6947;SDS011;3513;47.664;9.162;2024-03-02T03:54:50;51.53;;;26.23;;
6947;SDS011;3513;47.664;9.162;2024-03-02T03:57:16;48.87;;;26.50;;
6947;SDS011;3513;47.664;9.162;2024-03-02T03:59:42;41.27;;;24.73;;
6947;SDS011;3513;47.664;9.162;2024-03-02T04:02:08;44.60;;;24.00;;
6947;SDS011;3513;47.664;9.162;2024-03-02T04:04:34;46.33;;;26.13;;
6947;SDS011;3513;47.664;9.162;2024-03-02T04:07:00;63.40;;;26.23;;
6947;SDS011;3513;47.664;9.162;2024-03-02T04:09:26;48.07;;;25.47;;
6947;SDS011;3513;47.664;9.162;2024-03-02T04:11:52;65.53;;;27.40;;
6947;SDS011;3513;47.664;9.162;2024-03-02T04:14:18;115.37;;;27.87;;
6947;SDS011;3513;47.664;9.162;2024-03-02T04:16:43;52.40;;;26.77;;
6947;SDS011;3513;47.664;9.162;2024-03-02T04:19:09;54.73;;;27.23;;
6947;SDS011;3513;47.664;9.162;2024-03-02T04:21:34;52.97;;;25.50;;
6947;SDS011;3513;47.664;9.162;2024-03-02T04:24:00;56.93;;;26.10;;
6947;SDS011;3513;47.664;9.162;2024-03-02T04:26:26;46.33;;;25.20;;
6947;SDS011;3513;47.664;9.162;2024-03-02T04:28:52;52.93;;;25.53;;
6947;SDS011;3513;47.664;9.162;2024-03-02T04:31:18;100.17;;;25.67;;
6947;SDS011;3513;47.664;9.162;2024-03-02T04:33:44;96.33;;;25.73;;
6947;SDS011;3513;47.664;9.162;2024-03-02T04:36:10;62.93;;;27.33;;
6947;SDS011;3513;47.664;9.162;2024-03-02T04:38:36;52.27;;;24.97;;
6947;SDS011;3513;47.664;9.162;2024-03-02T04:41:01;70.73;;;26.27;;
6947;SDS011;3513;47.664;9.162;2024-03-02T04:43:28;108.33;;;24.47;;
6947;SDS011;3513;47.664;9.162;2024-03-02T04:45:54;44.30;;;23.90;;
6947;SDS011;3513;47.664;9.162;2024-03-02T04:48:19;59.30;;;23.23;;
6947;SDS011;3513;47.664;9.162;2024-03-02T04:50:47;47.03;;;22.07;;
6947;SDS011;3513;47.664;9.162;2024-03-02T04:53:12;40.70;;;23.00;;
6947;SDS011;3513;47.664;9.162;2024-03-02T04:55:38;44.83;;;22.73;;
6947;SDS011;3513;47.664;9.162;2024-03-02T04:58:04;40.17;;;23.17;;
6947;SDS011;3513;47.664;9.162;2024-03-02T05:00:30;61.60;;;25.53;;
6947;SDS011;3513;47.664;9.162;2024-03-02T05:02:55;47.50;;;24.23;;
6947;SDS011;3513;47.664;9.162;2024-03-02T05:05:21;41.87;;;22.83;;
6947;SDS011;3513;47.664;9.162;2024-03-02T05:07:47;44.27;;;24.27;;
6947;SDS011;3513;47.664;9.162;2024-03-02T05:10:12;39.30;;;23.33;;
6947;SDS011;3513;47.664;9.162;2024-03-02T05:12:39;41.03;;;23.10;;
6947;SDS011;3513;47.664;9.162;2024-03-02T05:15:07;38.77;;;22.67;;
6947;SDS011;3513;47.664;9.162;2024-03-02T05:17:37;110.83;;;27.37;;
6947;SDS011;3513;47.664;9.162;2024-03-02T05:20:06;42.43;;;23.53;;
6947;SDS011;3513;47.664;9.162;2024-03-02T05:22:38;94.57;;;26.43;;
6947;SDS011;3513;47.664;9.162;2024-03-02T05:25:04;118.87;;;29.80;;
6947;SDS011;3513;47.664;9.162;2024-03-02T05:27:30;152.30;;;29.30;;
6947;SDS011;3513;47.664;9.162;2024-03-02T05:29:57;75.37;;;24.67;;
6947;SDS011;3513;47.664;9.162;2024-03-02T05:32:23;87.23;;;24.83;;
6947;SDS011;3513;47.664;9.162;2024-03-02T05:34:49;116.47;;;26.60;;
6947;SDS011;3513;47.664;9.162;2024-03-02T05:37:15;101.73;;;27.63;;
6947;SDS011;3513;47.664;9.162;2024-03-02T05:39:41;86.23;;;25.50;;
6947;SDS011;3513;47.664;9.162;2024-03-02T05:42:08;104.13;;;26.93;;
6947;SDS011;3513;47.664;9.162;2024-03-02T05:44:34;65.40;;;26.00;;
6947;SDS011;3513;47.664;9.162;2024-03-02T05:47:00;106.53;;;27.50;;
6947;SDS011;3513;47.664;9.162;2024-03-02T05:49:25;100.63;;;28.70;;
6947;SDS011;3513;47.664;9.162;2024-03-02T05:51:51;52.87;;;25.40;;
6947;SDS011;3513;47.664;9.162;2024-03-02T05:54:16;75.47;;;27.50;;
6947;SDS011;3513;47.664;9.162;2024-03-02T05:56:42;51.13;;;26.30;;
6947;SDS011;3513;47.664;9.162;2024-03-02T05:59:08;53.47;;;24.37;;
6947;SDS011;3513;47.664;9.162;2024-03-02T06:01:40;48.47;;;26.40;;
6947;SDS011;3513;47.664;9.162;2024-03-02T06:04:10;110.00;;;29.20;;
6947;SDS011;3513;47.664;9.162;2024-03-02T06:06:36;70.33;;;29.13;;
6947;SDS011;3513;47.664;9.162;2024-03-02T06:09:01;99.80;;;29.03;;
6947;SDS011;3513;47.664;9.162;2024-03-02T06:11:30;58.03;;;26.73;;
6947;SDS011;3513;47.664;9.162;2024-03-02T06:13:55;91.40;;;28.90;;
6947;SDS011;3513;47.664;9.162;2024-03-02T06:16:21;66.67;;;28.33;;
6947;SDS011;3513;47.664;9.162;2024-03-02T06:18:47;114.97;;;41.50;;
6947;SDS011;3513;47.664;9.162;2024-03-02T06:21:12;106.67;;;31.57;;
6947;SDS011;3513;47.664;9.162;2024-03-02T06:23:38;101.30;;;28.27;;
6947;SDS011;3513;47.664;9.162;2024-03-02T06:26:03;77.37;;;27.70;;
6947;SDS011;3513;47.664;9.162;2024-03-02T06:28:29;72.60;;;26.20;;
6947;SDS011;3513;47.664;9.162;2024-03-02T06:30:54;70.50;;;23.20;;
6947;SDS011;3513;47.664;9.162;2024-03-02T06:33:20;90.07;;;25.70;;
6947;SDS011;3513;47.664;9.162;2024-03-02T06:35:45;137.53;;;26.40;;
6947;SDS011;3513;47.664;9.162;2024-03-02T06:38:11;108.90;;;24.47;;
6947;SDS011;3513;47.664;9.162;2024-03-02T06:40:36;102.63;;;24.50;;
6947;SDS011;3513;47.664;9.162;2024-03-02T06:43:05;52.70;;;21.07;;
6947;SDS011;3513;47.664;9.162;2024-03-02T06:45:31;119.80;;;23.43;;
6947;SDS011;3513;47.664;9.162;2024-03-02T06:47:59;60.97;;;20.50;;
6947;SDS011;3513;47.664;9.162;2024-03-02T06:50:24;86.90;;;23.07;;
6947;SDS011;3513;47.664;9.162;2024-03-02T06:52:50;54.80;;;22.07;;
6947;SDS011;3513;47.664;9.162;2024-03-02T06:55:16;37.33;;;19.57;;
6947;SDS011;3513;47.664;9.162;2024-03-02T06:57:41;39.23;;;19.10;;
6947;SDS011;3513;47.664;9.162;2024-03-02T07:00:07;35.47;;;17.47;;
6947;SDS011;3513;47.664;9.162;2024-03-02T07:02:34;44.77;;;16.93;;
6947;SDS011;3513;47.664;9.162;2024-03-02T07:05:01;26.63;;;16.50;;
6947;SDS011;3513;47.664;9.162;2024-03-02T07:07:27;24.17;;;16.13;;
6947;SDS011;3513;47.664;9.162;2024-03-02T07:09:52;34.03;;;15.80;;
6947;SDS011;3513;47.664;9.162;2024-03-02T07:12:18;27.53;;;15.07;;
6947;SDS011;3513;47.664;9.162;2024-03-02T07:14:44;46.67;;;18.00;;
6947;SDS011;3513;47.664;9.162;2024-03-02T07:17:22;33.33;;;18.90;;
6947;SDS011;3513;47.664;9.162;2024-03-02T07:19:47;56.00;;;26.70;;
6947;SDS011;3513;47.664;9.162;2024-03-02T07:22:13;28.53;;;17.17;;
6947;SDS011;3513;47.664;9.162;2024-03-02T07:24:39;27.00;;;16.30;;
6947;SDS011;3513;47.664;9.162;2024-03-02T07:27:09;26.37;;;15.57;;
6947;SDS011;3513;47.664;9.162;2024-03-02T07:29:35;26.67;;;17.10;;
6947;SDS011;3513;47.664;9.162;2024-03-02T07:32:01;26.10;;;17.10;;
6947;SDS011;3513;47.664;9.162;2024-03-02T07:34:26;33.23;;;18.43;;
6947;SDS011;3513;47.664;9.162;2024-03-02T07:36:52;50.67;;;19.00;;
6947;SDS011;3513;47.664;9.162;2024-03-02T07:39:18;34.13;;;19.07;;
6947;SDS011;3513;47.664;9.162;2024-03-02T07:41:45;32.23;;;18.83;;
6947;SDS011;3513;47.664;9.162;2024-03-02T07:44:11;140.13;;;24.30;;
6947;SDS011;3513;47.664;9.162;2024-03-02T07:46:40;87.80;;;23.60;;
6947;SDS011;3513;47.664;9.162;2024-03-02T07:49:09;64.80;;;24.00;;
6947;SDS011;3513;47.664;9.162;2024-03-02T07:51:35;74.93;;;23.50;;
6947;SDS011;3513;47.664;9.162;2024-03-02T07:54:01;112.00;;;26.60;;
6947;SDS011;3513;47.664;9.162;2024-03-02T07:56:27;45.83;;;23.87;;
6947;SDS011;3513;47.664;9.162;2024-03-02T07:58:53;72.17;;;24.23;;
6947;SDS011;3513;47.664;9.162;2024-03-02T08:01:19;70.77;;;24.27;;
6947;SDS011;3513;47.664;9.162;2024-03-02T08:03:44;123.57;;;27.80;;
6947;SDS011;3513;47.664;9.162;2024-03-02T08:06:13;82.10;;;25.10;;
6947;SDS011;3513;47.664;9.162;2024-03-02T08:08:40;56.87;;;23.70;;
6947;SDS011;3513;47.664;9.162;2024-03-02T08:11:05;123.53;;;25.00;;
6947;SDS011;3513;47.664;9.162;2024-03-02T08:13:31;47.40;;;24.63;;
6947;SDS011;3513;47.664;9.162;2024-03-02T08:15:57;101.63;;;24.57;;
6947;SDS011;3513;47.664;9.162;2024-03-02T08:18:23;54.83;;;24.67;;
6947;SDS011;3513;47.664;9.162;2024-03-02T08:20:49;72.20;;;25.60;;
6947;SDS011;3513;47.664;9.162;2024-03-02T08:23:14;62.57;;;24.93;;
6947;SDS011;3513;47.664;9.162;2024-03-02T08:25:40;68.43;;;29.00;;
6947;SDS011;3513;47.664;9.162;2024-03-02T08:28:05;65.33;;;28.70;;
6947;SDS011;3513;47.664;9.162;2024-03-02T08:30:31;72.83;;;25.13;;
6947;SDS011;3513;47.664;9.162;2024-03-02T08:32:56;62.67;;;27.83;;
6947;SDS011;3513;47.664;9.162;2024-03-02T08:35:22;48.90;;;26.80;;
6947;SDS011;3513;47.664;9.162;2024-03-02T08:37:48;63.23;;;29.57;;
6947;SDS011;3513;47.664;9.162;2024-03-02T08:40:13;61.50;;;25.83;;
6947;SDS011;3513;47.664;9.162;2024-03-02T08:42:40;85.53;;;26.23;;
6947;SDS011;3513;47.664;9.162;2024-03-02T08:45:06;56.03;;;25.37;;
6947;SDS011;3513;47.664;9.162;2024-03-02T08:47:32;58.33;;;27.20;;
6947;SDS011;3513;47.664;9.162;2024-03-02T08:49:59;50.43;;;25.63;;
6947;SDS011;3513;47.664;9.162;2024-03-02T08:52:25;57.07;;;23.40;;
6947;SDS011;3513;47.664;9.162;2024-03-02T08:54:51;43.90;;;23.83;;
6947;SDS011;3513;47.664;9.162;2024-03-02T08:57:17;42.87;;;22.93;;
6947;SDS011;3513;47.664;9.162;2024-03-02T08:59:42;48.47;;;25.57;;
6947;SDS011;3513;47.664;9.162;2024-03-02T09:02:09;45.90;;;23.13;;
6947;SDS011;3513;47.664;9.162;2024-03-02T09:04:34;54.00;;;23.93;;
6947;SDS011;3513;47.664;9.162;2024-03-02T09:07:00;42.30;;;22.43;;
6947;SDS011;3513;47.664;9.162;2024-03-02T09:09:26;42.07;;;23.23;;
6947;SDS011;3513;47.664;9.162;2024-03-02T09:11:51;43.10;;;22.03;;
6947;SDS011;3513;47.664;9.162;2024-03-02T09:14:19;50.80;;;24.00;;
6947;SDS011;3513;47.664;9.162;2024-03-02T09:16:45;44.67;;;23.43;;
6947;SDS011;3513;47.664;9.162;2024-03-02T09:19:11;39.80;;;23.00;;
6947;SDS011;3513;47.664;9.162;2024-03-02T09:21:37;49.70;;;24.50;;
6947;SDS011;3513;47.664;9.162;2024-03-02T09:24:02;45.00;;;25.33;;
6947;SDS011;3513;47.664;9.162;2024-03-02T09:26:28;53.43;;;25.80;;
6947;SDS011;3513;47.664;9.162;2024-03-02T09:28:54;44.77;;;25.00;;
6947;SDS011;3513;47.664;9.162;2024-03-02T09:31:19;44.43;;;25.60;;
6947;SDS011;3513;47.664;9.162;2024-03-02T09:33:45;40.77;;;21.83;;
6947;SDS011;3513;47.664;9.162;2024-03-02T09:36:17;43.40;;;24.83;;
6947;SDS011;3513;47.664;9.162;2024-03-02T09:38:43;36.40;;;21.80;;
6947;SDS011;3513;47.664;9.162;2024-03-02T09:41:09;37.93;;;22.43;;
6947;SDS011;3513;47.664;9.162;2024-03-02T09:43:35;39.30;;;22.97;;
6947;SDS011;3513;47.664;9.162;2024-03-02T09:46:01;46.97;;;23.50;;
6947;SDS011;3513;47.664;9.162;2024-03-02T09:48:26;34.23;;;21.03;;
6947;SDS011;3513;47.664;9.162;2024-03-02T09:50:52;43.67;;;23.60;;
6947;SDS011;3513;47.664;9.162;2024-03-02T09:53:18;36.50;;;19.93;;
6947;SDS011;3513;47.664;9.162;2024-03-02T09:55:46;39.10;;;22.20;;
6947;SDS011;3513;47.664;9.162;2024-03-02T09:58:12;34.00;;;18.50;;
6947;SDS011;3513;47.664;9.162;2024-03-02T10:00:38;33.20;;;20.03;;
6947;SDS011;3513;47.664;9.162;2024-03-02T10:03:04;33.07;;;19.53;;
6947;SDS011;3513;47.664;9.162;2024-03-02T10:05:30;36.47;;;21.43;;
6947;SDS011;3513;47.664;9.162;2024-03-02T10:08:00;29.33;;;19.07;;
6947;SDS011;3513;47.664;9.162;2024-03-02T10:10:37;31.50;;;18.70;;
6947;SDS011;3513;47.664;9.162;2024-03-02T10:13:08;28.97;;;18.20;;
6947;SDS011;3513;47.664;9.162;2024-03-02T10:15:35;33.90;;;18.30;;
6947;SDS011;3513;47.664;9.162;2024-03-02T10:18:08;26.50;;;17.90;;
6947;SDS011;3513;47.664;9.162;2024-03-02T10:20:36;26.60;;;15.13;;
6947;SDS011;3513;47.664;9.162;2024-03-02T10:23:15;26.40;;;15.53;;
6947;SDS011;3513;47.664;9.162;2024-03-02T10:25:42;22.23;;;14.97;;
6947;SDS011;3513;47.664;9.162;2024-03-02T10:28:09;24.37;;;15.10;;
6947;SDS011;3513;47.664;9.162;2024-03-02T10:30:34;23.40;;;14.90;;
6947;SDS011;3513;47.664;9.162;2024-03-02T10:33:01;20.73;;;13.37;;
6947;SDS011;3513;47.664;9.162;2024-03-02T10:35:27;21.80;;;13.67;;
6947;SDS011;3513;47.664;9.162;2024-03-02T10:37:53;22.57;;;14.17;;
6947;SDS011;3513;47.664;9.162;2024-03-02T10:40:22;21.83;;;14.87;;
6947;SDS011;3513;47.664;9.162;2024-03-02T10:42:49;23.30;;;14.47;;
6947;SDS011;3513;47.664;9.162;2024-03-02T10:45:16;30.90;;;14.83;;
6947;SDS011;3513;47.664;9.162;2024-03-02T10:47:46;20.20;;;13.50;;
6947;SDS011;3513;47.664;9.162;2024-03-02T10:50:12;22.30;;;13.40;;
6947;SDS011;3513;47.664;9.162;2024-03-02T10:52:38;23.23;;;13.80;;
6947;SDS011;3513;47.664;9.162;2024-03-02T10:55:04;19.17;;;12.73;;
6947;SDS011;3513;47.664;9.162;2024-03-02T10:57:32;22.57;;;13.53;;
6947;SDS011;3513;47.664;9.162;2024-03-02T11:00:15;21.17;;;13.47;;
6947;SDS011;3513;47.664;9.162;2024-03-02T11:02:51;22.97;;;13.80;;
6947;SDS011;3513;47.664;9.162;2024-03-02T11:05:26;22.90;;;14.77;;
6947;SDS011;3513;47.664;9.162;2024-03-02T11:07:56;23.83;;;14.90;;
6947;SDS011;3513;47.664;9.162;2024-03-02T11:10:28;20.57;;;13.37;;
6947;SDS011;3513;47.664;9.162;2024-03-02T11:13:16;25.27;;;14.90;;
6947;SDS011;3513;47.664;9.162;2024-03-02T11:15:49;24.43;;;15.13;;
6947;SDS011;3513;47.664;9.162;2024-03-02T11:18:18;23.80;;;15.27;;
6947;SDS011;3513;47.664;9.162;2024-03-02T11:20:44;25.13;;;14.07;;
6947;SDS011;3513;47.664;9.162;2024-03-02T11:23:11;27.27;;;14.90;;
6947;SDS011;3513;47.664;9.162;2024-03-02T11:25:37;27.97;;;16.33;;
6947;SDS011;3513;47.664;9.162;2024-03-02T11:28:05;21.43;;;13.67;;
6947;SDS011;3513;47.664;9.162;2024-03-02T11:32:57;22.43;;;14.03;;
6947;SDS011;3513;47.664;9.162;2024-03-02T11:35:31;20.90;;;12.53;;
6947;SDS011;3513;47.664;9.162;2024-03-02T11:37:58;24.90;;;15.97;;
6947;SDS011;3513;47.664;9.162;2024-03-02T11:40:26;23.50;;;14.50;;
6947;SDS011;3513;47.664;9.162;2024-03-02T11:42:53;19.63;;;13.30;;
6947;SDS011;3513;47.664;9.162;2024-03-02T11:45:25;21.00;;;13.00;;
6947;SDS011;3513;47.664;9.162;2024-03-02T11:47:55;23.40;;;14.47;;
6947;SDS011;3513;47.664;9.162;2024-03-02T11:50:31;24.20;;;14.43;;
6947;SDS011;3513;47.664;9.162;2024-03-02T11:53:00;29.17;;;15.37;;
6947;SDS011;3513;47.664;9.162;2024-03-02T11:55:26;24.10;;;14.40;;
6947;SDS011;3513;47.664;9.162;2024-03-02T11:57:52;34.43;;;15.27;;
6947;SDS011;3513;47.664;9.162;2024-03-02T12:00:18;25.00;;;15.20;;
6947;SDS011;3513;47.664;9.162;2024-03-02T12:02:47;27.60;;;14.77;;
6947;SDS011;3513;47.664;9.162;2024-03-02T12:05:28;21.13;;;12.90;;
6947;SDS011;3513;47.664;9.162;2024-03-02T12:07:55;24.23;;;14.33;;
6947;SDS011;3513;47.664;9.162;2024-03-02T12:10:25;26.93;;;14.27;;
6947;SDS011;3513;47.664;9.162;2024-03-02T12:12:55;33.03;;;15.07;;
6947;SDS011;3513;47.664;9.162;2024-03-02T12:15:25;26.43;;;15.23;;
6947;SDS011;3513;47.664;9.162;2024-03-02T12:17:55;25.07;;;14.00;;
6947;SDS011;3513;47.664;9.162;2024-03-02T12:20:21;17.53;;;12.10;;
6947;SDS011;3513;47.664;9.162;2024-03-02T12:22:55;20.20;;;12.40;;
6947;SDS011;3513;47.664;9.162;2024-03-02T12:25:23;25.60;;;13.07;;
6947;SDS011;3513;47.664;9.162;2024-03-02T12:27:50;19.27;;;11.77;;
6947;SDS011;3513;47.664;9.162;2024-03-02T12:30:17;20.37;;;13.40;;
6947;SDS011;3513;47.664;9.162;2024-03-02T12:32:44;22.53;;;14.00;;
6947;SDS011;3513;47.664;9.162;2024-03-02T12:35:10;22.47;;;12.80;;
6947;SDS011;3513;47.664;9.162;2024-03-02T12:37:43;19.23;;;12.13;;
6947;SDS011;3513;47.664;9.162;2024-03-02T12:40:13;21.53;;;13.50;;
6947;SDS011;3513;47.664;9.162;2024-03-02T12:42:42;20.20;;;12.60;;
6947;SDS011;3513;47.664;9.162;2024-03-02T12:45:08;25.47;;;12.83;;
6947;SDS011;3513;47.664;9.162;2024-03-02T12:47:34;18.30;;;12.00;;
6947;SDS011;3513;47.664;9.162;2024-03-02T12:50:00;18.93;;;12.30;;
6947;SDS011;3513;47.664;9.162;2024-03-02T12:52:27;17.57;;;12.10;;
6947;SDS011;3513;47.664;9.162;2024-03-02T12:54:53;20.30;;;12.50;;
6947;SDS011;3513;47.664;9.162;2024-03-02T12:57:25;19.57;;;12.17;;
6947;SDS011;3513;47.664;9.162;2024-03-02T13:00:04;17.93;;;10.87;;
6947;SDS011;3513;47.664;9.162;2024-03-02T13:02:34;16.33;;;10.53;;
6947;SDS011;3513;47.664;9.162;2024-03-02T13:05:01;18.40;;;10.87;;
6947;SDS011;3513;47.664;9.162;2024-03-02T13:07:27;19.70;;;11.77;;
6947;SDS011;3513;47.664;9.162;2024-03-02T13:09:54;17.03;;;10.43;;
6947;SDS011;3513;47.664;9.162;2024-03-02T13:12:21;15.17;;;9.83;;
6947;SDS011;3513;47.664;9.162;2024-03-02T13:14:49;12.53;;;8.73;;
6947;SDS011;3513;47.664;9.162;2024-03-02T13:17:19;12.50;;;9.40;;
6947;SDS011;3513;47.664;9.162;2024-03-02T13:19:55;16.50;;;10.20;;
6947;SDS011;3513;47.664;9.162;2024-03-02T13:22:22;24.33;;;10.47;;
6947;SDS011;3513;47.664;9.162;2024-03-02T13:24:49;15.70;;;9.67;;
6947;SDS011;3513;47.664;9.162;2024-03-02T13:27:15;15.90;;;9.80;;
6947;SDS011;3513;47.664;9.162;2024-03-02T13:29:41;17.23;;;10.43;;
6947;SDS011;3513;47.664;9.162;2024-03-02T13:32:07;13.10;;;8.63;;
6947;SDS011;3513;47.664;9.162;2024-03-02T13:34:35;11.60;;;7.87;;
6947;SDS011;3513;47.664;9.162;2024-03-02T13:37:02;8.67;;;6.53;;
6947;SDS011;3513;47.664;9.162;2024-03-02T13:39:27;8.73;;;6.30;;
6947;SDS011;3513;47.664;9.162;2024-03-02T13:41:56;10.53;;;5.77;;
6947;SDS011;3513;47.664;9.162;2024-03-02T13:44:28;9.23;;;6.30;;
6947;SDS011;3513;47.664;9.162;2024-03-02T13:46:54;5.97;;;4.83;;
6947;SDS011;3513;47.664;9.162;2024-03-02T13:49:19;7.67;;;5.57;;
6947;SDS011;3513;47.664;9.162;2024-03-02T13:51:45;7.90;;;5.13;;
6947;SDS011;3513;47.664;9.162;2024-03-02T13:54:10;8.23;;;5.17;;
6947;SDS011;3513;47.664;9.162;2024-03-02T13:56:36;10.83;;;5.57;;
6947;SDS011;3513;47.664;9.162;2024-03-02T13:59:04;6.20;;;4.90;;
6947;SDS011;3513;47.664;9.162;2024-03-02T14:01:31;6.10;;;4.30;;
6947;SDS011;3513;47.664;9.162;2024-03-02T14:03:57;4.57;;;3.50;;
6947;SDS011;3513;47.664;9.162;2024-03-02T14:06:23;12.40;;;4.30;;
6947;SDS011;3513;47.664;9.162;2024-03-02T14:08:51;6.07;;;4.10;;
6947;SDS011;3513;47.664;9.162;2024-03-02T14:11:16;5.33;;;3.90;;
6947;SDS011;3513;47.664;9.162;2024-03-02T14:13:42;5.10;;;3.87;;
6947;SDS011;3513;47.664;9.162;2024-03-02T14:16:09;5.00;;;3.93;;
6947;SDS011;3513;47.664;9.162;2024-03-02T14:18:35;5.53;;;4.17;;
6947;SDS011;3513;47.664;9.162;2024-03-02T14:21:01;6.90;;;4.13;;
6947;SDS011;3513;47.664;9.162;2024-03-02T14:23:28;5.20;;;4.43;;
6947;SDS011;3513;47.664;9.162;2024-03-02T14:25:54;6.20;;;3.90;;
6947;SDS011;3513;47.664;9.162;2024-03-02T14:28:20;6.93;;;3.70;;
6947;SDS011;3513;47.664;9.162;2024-03-02T14:30:46;4.30;;;3.07;;
6947;SDS011;3513;47.664;9.162;2024-03-02T14:33:11;6.03;;;3.73;;
6947;SDS011;3513;47.664;9.162;2024-03-02T14:35:38;4.77;;;3.60;;
6947;SDS011;3513;47.664;9.162;2024-03-02T14:38:04;5.20;;;4.07;;
6947;SDS011;3513;47.664;9.162;2024-03-02T14:40:29;5.80;;;3.87;;
6947;SDS011;3513;47.664;9.162;2024-03-02T14:42:55;5.57;;;4.00;;
6947;SDS011;3513;47.664;9.162;2024-03-02T14:45:21;7.23;;;3.70;;
6947;SDS011;3513;47.664;9.162;2024-03-02T14:47:48;5.80;;;3.97;;
6947;SDS011;3513;47.664;9.162;2024-03-02T14:50:14;5.10;;;3.97;;
6947;SDS011;3513;47.664;9.162;2024-03-02T14:52:41;6.10;;;4.10;;
6947;SDS011;3513;47.664;9.162;2024-03-02T14:55:07;9.57;;;4.40;;